createdAt,value
2023-02-19T00:06:58.307Z,7.85
2023-02-19T00:26:58.286Z,7.84
2023-02-19T00:46:58.336Z,7.76
2023-02-19T01:06:58.303Z,7.76
2023-02-19T01:26:58.242Z,7.76
2023-02-19T01:46:58.213Z,7.76
2023-02-19T02:26:58.196Z,7.76
2023-02-19T02:46:58.195Z,7.71
2023-02-19T03:06:58.163Z,7.71
2023-02-19T03:26:58.162Z,7.64
2023-02-19T03:46:58.146Z,7.56
2023-02-19T04:06:58.112Z,7.48
2023-02-19T04:26:58.132Z,7.42
2023-02-19T04:46:58.070Z,7.38
2023-02-19T05:06:58.102Z,7.34
2023-02-19T05:26:58.069Z,7.30
2023-02-19T05:46:58.018Z,7.27
2023-02-19T06:06:58.008Z,7.27
2023-02-19T06:26:58.115Z,7.23
2023-02-19T06:46:57.982Z,7.18
2023-02-19T07:06:57.966Z,7.25
2023-02-19T07:26:57.974Z,7.23
2023-02-19T07:46:57.941Z,7.24
2023-02-19T08:06:57.962Z,7.37
2023-02-19T08:26:57.941Z,7.64
2023-02-19T08:46:57.897Z,8.22
2023-02-19T09:06:57.865Z,8.06
2023-02-19T09:26:57.966Z,7.95
2023-02-19T09:46:57.923Z,8.43
2023-02-19T10:06:57.821Z,8.42
2023-02-19T10:26:57.876Z,8.75
2023-02-19T10:46:57.776Z,9.05
2023-02-19T11:06:57.784Z,9.07
2023-02-19T11:26:57.758Z,9.67
2023-02-19T11:46:57.742Z,9.55
2023-02-19T12:06:57.714Z,9.37
2023-02-19T12:26:57.714Z,9.45
2023-02-19T12:46:57.688Z,9.15
2023-02-19T13:06:57.658Z,9.14
2023-02-19T13:26:57.729Z,9.21
2023-02-19T13:46:57.623Z,9.14
2023-02-19T14:06:57.609Z,9.14
2023-02-19T14:26:57.584Z,9.09
2023-02-19T14:46:57.568Z,8.86
2023-02-19T15:06:57.571Z,8.65
2023-02-19T15:26:57.590Z,8.49
2023-02-19T15:46:57.527Z,8.29
2023-02-19T16:06:57.502Z,7.95
2023-02-19T16:26:57.491Z,7.70
2023-02-19T16:46:57.471Z,7.47
2023-02-19T17:06:57.533Z,7.23
2023-02-19T17:26:57.556Z,6.98
2023-02-19T17:46:57.415Z,6.78
2023-02-19T18:06:57.413Z,6.70
2023-02-19T18:26:57.393Z,6.58
2023-02-19T18:46:57.380Z,6.44
2023-02-19T19:06:57.377Z,6.36
2023-02-19T19:26:57.456Z,6.32
2023-02-19T19:46:57.371Z,6.36
2023-02-19T20:06:57.352Z,6.23
2023-02-19T20:26:57.324Z,6.12
2023-02-19T20:46:57.285Z,6.07
2023-02-19T21:06:57.264Z,6.03
2023-02-19T21:26:57.255Z,6.00
2023-02-19T21:46:57.249Z,5.99
2023-02-19T22:06:57.242Z,5.98
2023-02-19T22:26:57.278Z,6.00
2023-02-19T22:46:57.245Z,5.98
2023-02-19T23:06:57.193Z,5.94
2023-02-19T23:26:57.185Z,5.88
2023-02-19T23:46:57.158Z,5.83
